Forside
METAR-TAF:

METAR-TAF

Lufthavne :

Tri-Township Airport

Savanna, Illinois, USA

Breddekreds: 42-02-45N, længdekreds: 090-06-28W, højde: 188 m

Aktuelle vejr

Denne rapport blev lavet for 29 minutter siden, kl. 13:55 UTC
Vind 9 kt fra vest
Temperatur 8°C
Fugtighed 71%
Tryk 1019 hPa
Sigt: 16.1 km
Overskyet i en højde af 1900 ft

METAR: KSFY 201355Z AUTO 28009KT 10SM OVC019 08/03 A3008 RMK AO2

Tid: 09:24 (14:24 UTC)


TAF: fraværende

Vejrobservationer og prognoser fra mere end 4000 lufthavne (METAR og TAF).

De gule og røde prikker repræsenterer de meteorologiske stationer.

Flyt musen over at se navnet på stationen.

Så klik over at se vejr observationer og prognoser.

At skifte det kort: Klik på de grønne knapper med et sort kors for at zoome ind; på den grønne knap med en bindestreg for at zoome ud; eller på de grønne pile for tilstødende kort.


METAR-TAF: